createdAt,value
2023-01-26T00:02:02.990Z,101088.03
2023-01-26T00:04:37.235Z,101087.75
2023-01-26T00:07:05.713Z,101093.25
2023-01-26T00:12:31.064Z,101078.47
2023-01-26T00:15:00.691Z,101076.91
2023-01-26T00:17:37.489Z,101064.63
2023-01-26T00:20:07.644Z,101064.91
2023-01-26T00:22:35.454Z,101060.06
2023-01-26T00:25:05.342Z,101072.09
2023-01-26T00:27:35.435Z,101067.00
2023-01-26T00:30:05.398Z,101063.84
2023-01-26T00:32:37.617Z,101056.59
2023-01-26T00:35:07.783Z,101065.09
2023-01-26T00:37:35.990Z,101055.47
2023-01-26T00:40:09.531Z,101038.78
2023-01-26T00:42:43.227Z,100997.69
2023-01-26T00:45:19.681Z,101043.53
2023-01-26T00:47:47.963Z,101063.16
2023-01-26T00:50:27.968Z,101045.84
2023-01-26T00:52:57.639Z,101064.88
2023-01-26T00:55:32.313Z,101064.97
2023-01-26T00:58:01.649Z,101054.13
2023-01-26T01:00:31.376Z,101058.34
2023-01-26T01:03:05.523Z,101052.59
2023-01-26T01:05:39.490Z,101015.59
2023-01-26T01:08:07.799Z,101047.53
2023-01-26T01:10:40.956Z,101063.91
2023-01-26T01:13:09.094Z,101064.03
2023-01-26T01:15:43.005Z,101062.47
2023-01-26T01:18:11.555Z,101045.72
2023-01-26T01:20:43.665Z,101053.75
2023-01-26T01:23:14.069Z,101059.25
2023-01-26T01:25:43.665Z,101061.38
2023-01-26T01:28:11.459Z,101065.28
2023-01-26T01:30:47.081Z,101064.28
2023-01-26T01:33:19.038Z,101067.13
2023-01-26T01:36:00.027Z,101053.19
2023-01-26T01:38:38.833Z,101043.88
2023-01-26T01:41:08.149Z,101057.38
2023-01-26T01:43:39.586Z,101048.22
2023-01-26T01:46:17.003Z,101054.00
2023-01-26T01:48:54.134Z,101056.84
2023-01-26T01:51:32.245Z,101053.75
2023-01-26T01:54:06.881Z,101059.53
2023-01-26T01:56:38.289Z,101029.69
2023-01-26T01:59:09.712Z,101037.28
2023-01-26T02:01:38.682Z,101028.00
2023-01-26T02:04:11.447Z,101047.28
2023-01-26T02:06:51.221Z,101044.75
2023-01-26T02:09:39.627Z,101047.13
2023-01-26T02:12:18.785Z,101038.84
2023-01-26T02:14:50.786Z,101038.72
2023-01-26T02:17:24.172Z,101035.75
2023-01-26T02:20:00.334Z,101027.03
2023-01-26T02:22:45.384Z,101035.59
2023-01-26T02:25:27.456Z,101034.34
2023-01-26T02:28:26.688Z,101021.13
2023-01-26T02:31:01.607Z,101028.84
2023-01-26T02:33:34.979Z,101031.06
2023-01-26T02:36:08.275Z,101024.63
2023-01-26T02:38:50.181Z,101018.88
2023-01-26T02:41:42.297Z,101023.38
2023-01-26T02:44:15.846Z,101027.31
2023-01-26T02:46:49.227Z,101009.84
2023-01-26T02:49:39.030Z,101012.38
2023-01-26T02:52:11.910Z,100985.66
2023-01-26T02:55:01.413Z,101009.44
2023-01-26T02:57:32.563Z,100995.50
2023-01-26T03:00:02.377Z,100994.25
2023-01-26T03:02:42.328Z,100997.63
2023-01-26T03:05:11.412Z,100986.22
2023-01-26T03:07:43.201Z,100990.28
2023-01-26T03:10:12.284Z,100985.13
2023-01-26T03:12:41.035Z,100972.03
2023-01-26T03:15:31.753Z,100981.88
2023-01-26T03:18:23.046Z,100987.06
2023-01-26T03:21:09.232Z,100978.34
2023-01-26T03:23:58.218Z,100983.56
2023-01-26T03:26:47.538Z,100984.25
2023-01-26T03:29:20.176Z,100979.75
2023-01-26T03:31:55.466Z,100979.47
2023-01-26T03:34:25.779Z,100979.75
2023-01-26T03:36:54.935Z,100984.53
2023-01-26T03:39:40.551Z,100968.22
2023-01-26T03:42:27.300Z,100965.28
2023-01-26T03:45:14.340Z,100943.75
2023-01-26T03:48:03.833Z,100967.94
2023-01-26T03:50:51.896Z,100965.81
2023-01-26T03:53:46.824Z,100972.72
2023-01-26T03:56:21.529Z,100956.69
2023-01-26T03:58:57.667Z,100966.81
2023-01-26T04:01:29.905Z,100965.56
2023-01-26T04:04:21.215Z,100949.22
2023-01-26T04:07:09.337Z,100952.72
2023-01-26T04:09:41.168Z,100946.97
2023-01-26T04:12:11.154Z,100940.50
2023-01-26T04:14:58.313Z,100939.78
2023-01-26T04:17:43.857Z,100930.38
2023-01-26T04:20:40.974Z,100936.44
2023-01-26T04:23:21.409Z,100937.69
2023-01-26T04:25:54.177Z,100937.56
2023-01-26T04:28:32.911Z,100935.19
2023-01-26T04:31:03.116Z,100927.72
2023-01-26T04:36:15.154Z,100933.34
2023-01-26T04:38:45.580Z,100928.00
2023-01-26T04:41:14.897Z,100934.03
2023-01-26T04:43:46.026Z,100922.66
2023-01-26T04:46:16.150Z,100928.81
2023-01-26T04:48:44.467Z,100928.28
2023-01-26T04:51:23.006Z,100930.81
2023-01-26T04:53:53.937Z,100916.88
2023-01-26T04:56:26.704Z,100914.91
2023-01-26T04:58:57.167Z,100933.03
2023-01-26T05:01:25.403Z,100906.19
2023-01-26T05:03:54.862Z,100916.03
2023-01-26T05:06:24.903Z,100906.63
2023-01-26T05:08:57.769Z,100860.75
2023-01-26T05:11:26.461Z,100904.34
2023-01-26T05:13:58.172Z,100914.19
2023-01-26T05:16:30.982Z,100913.22
2023-01-26T05:19:00.597Z,100902.75
2023-01-26T05:21:30.501Z,100904.84
2023-01-26T05:23:59.500Z,100887.69
2023-01-26T05:26:34.025Z,100900.84
2023-01-26T05:29:03.580Z,100911.66
2023-01-26T05:31:33.756Z,100897.31
2023-01-26T05:34:01.924Z,100905.41
2023-01-26T05:36:32.340Z,100906.19
2023-01-26T05:39:09.488Z,100877.63
2023-01-26T05:41:39.427Z,100916.44
2023-01-26T05:44:08.505Z,100902.03
2023-01-26T05:46:37.656Z,100894.19
2023-01-26T05:49:05.489Z,100881.44
2023-01-26T05:51:38.585Z,100917.25
2023-01-26T05:54:11.286Z,100912.47
2023-01-26T05:56:43.325Z,100917.16
2023-01-26T05:59:12.223Z,100931.22
2023-01-26T06:01:45.040Z,100932.34
2023-01-26T06:04:13.377Z,100935.31
2023-01-26T06:06:47.102Z,100939.81
2023-01-26T06:09:16.833Z,100940.34
2023-01-26T06:11:44.844Z,100936.09
2023-01-26T06:14:19.140Z,100937.28
2023-01-26T06:16:48.308Z,100947.69
2023-01-26T06:19:17.891Z,100945.72
2023-01-26T06:21:49.316Z,100947.97
2023-01-26T06:24:21.814Z,100951.34
2023-01-26T06:26:51.458Z,100947.84
2023-01-26T06:29:29.380Z,100943.91
2023-01-26T06:31:57.783Z,100954.72
2023-01-26T06:34:27.689Z,100953.75
2023-01-26T06:37:03.821Z,100951.59
2023-01-26T06:39:31.763Z,100959.34
2023-01-26T06:42:21.618Z,100961.03
2023-01-26T06:44:52.203Z,100956.13
2023-01-26T06:47:24.795Z,100951.31
2023-01-26T06:49:54.157Z,100949.91
2023-01-26T06:52:32.176Z,100952.47
2023-01-26T06:55:01.415Z,100930.53
2023-01-26T06:57:31.981Z,100953.16
2023-01-26T07:00:00.362Z,100960.63
2023-01-26T07:02:32.967Z,100960.47
2023-01-26T07:05:01.347Z,100972.72
2023-01-26T07:07:40.533Z,100964.56
2023-01-26T07:10:13.207Z,100965.13
2023-01-26T07:12:44.390Z,100951.34
2023-01-26T07:15:15.190Z,100978.06
2023-01-26T07:17:44.323Z,100957.25
2023-01-26T07:20:16.019Z,100974.28
2023-01-26T07:22:48.020Z,100978.47
2023-01-26T07:25:17.857Z,100972.00
2023-01-26T07:27:49.073Z,100961.88
2023-01-26T07:30:23.528Z,100991.09
2023-01-26T07:32:53.214Z,100985.38
2023-01-26T07:35:21.534Z,100982.13
2023-01-26T07:38:19.873Z,100981.28
2023-01-26T07:40:50.315Z,100981.44
2023-01-26T07:43:18.881Z,100976.94
2023-01-26T07:45:50.327Z,100976.81
2023-01-26T07:48:19.206Z,100984.63
2023-01-26T07:50:49.707Z,100964.50
2023-01-26T07:53:23.066Z,100980.84
2023-01-26T07:55:56.560Z,100979.75
2023-01-26T07:58:27.329Z,100950.44
2023-01-26T08:01:01.372Z,100972.81
2023-01-26T08:03:37.223Z,100950.44
2023-01-26T08:06:08.311Z,100991.97
2023-01-26T08:08:41.237Z,100985.47
2023-01-26T08:11:12.944Z,101000.41
2023-01-26T08:13:41.471Z,100979.75
2023-01-26T08:16:12.405Z,100995.66
2023-01-26T08:18:46.178Z,100997.31
2023-01-26T08:21:28.599Z,100997.88
2023-01-26T08:24:04.953Z,101005.69
2023-01-26T08:26:33.931Z,101007.84
2023-01-26T08:29:06.926Z,100996.63
2023-01-26T08:31:39.201Z,101010.81
2023-01-26T08:34:07.792Z,101008.81
2023-01-26T08:36:36.523Z,101007.41
2023-01-26T08:39:14.340Z,100988.41
2023-01-26T08:41:51.291Z,101001.50
2023-01-26T08:44:19.740Z,101008.69
2023-01-26T08:46:49.211Z,101004.22
2023-01-26T08:49:18.132Z,100998.59
2023-01-26T08:51:47.798Z,101007.47
2023-01-26T08:54:18.894Z,101001.13
2023-01-26T08:56:49.158Z,101000.72
2023-01-26T08:59:18.430Z,101007.34
2023-01-26T09:01:51.358Z,101009.00
2023-01-26T09:04:22.373Z,101007.75
2023-01-26T09:06:58.003Z,100992.81
2023-01-26T09:09:27.968Z,101007.59
2023-01-26T09:11:57.435Z,101012.09
2023-01-26T09:14:26.011Z,101022.53
2023-01-26T09:16:55.037Z,101015.34
2023-01-26T09:19:35.800Z,101012.50
2023-01-26T09:22:07.479Z,101014.22
2023-01-26T09:24:38.138Z,101011.53
2023-01-26T09:27:10.353Z,101010.00
2023-01-26T09:29:45.106Z,101021.81
2023-01-26T09:32:14.025Z,101020.38
2023-01-26T09:34:46.071Z,101010.84
2023-01-26T09:37:15.650Z,101026.88
2023-01-26T09:39:46.190Z,100997.88
2023-01-26T09:42:35.636Z,101024.75
2023-01-26T09:45:20.210Z,101021.88
2023-01-26T09:48:03.460Z,101016.13
2023-01-26T09:50:36.225Z,100992.53
2023-01-26T09:53:15.215Z,101023.78
2023-01-26T09:55:54.464Z,101025.56
2023-01-26T09:58:36.502Z,100999.69
2023-01-26T10:01:06.555Z,101024.16
2023-01-26T10:03:41.741Z,101030.19
2023-01-26T10:06:22.597Z,100996.56
2023-01-26T10:08:53.987Z,101015.31
2023-01-26T10:11:47.235Z,100992.84
2023-01-26T10:14:20.483Z,100982.28
2023-01-26T10:16:53.025Z,101005.94
2023-01-26T10:19:35.578Z,101009.59
2023-01-26T10:22:12.861Z,101008.16
2023-01-26T10:24:44.050Z,100998.31
2023-01-26T10:27:28.138Z,101005.75
2023-01-26T10:29:59.591Z,100994.66
2023-01-26T10:32:30.875Z,101002.84
2023-01-26T10:35:05.161Z,100983.97
2023-01-26T10:37:39.992Z,100989.88
2023-01-26T10:40:12.795Z,100984.81
2023-01-26T10:42:57.402Z,100989.88
2023-01-26T10:45:34.069Z,100981.72
2023-01-26T10:48:06.804Z,100966.13
2023-01-26T10:50:37.027Z,100976.38
2023-01-26T10:53:08.678Z,100978.19
2023-01-26T10:55:42.650Z,100991.44
2023-01-26T10:58:55.540Z,100986.91
2023-01-26T11:01:30.395Z,100971.97
2023-01-26T11:04:05.945Z,100973.56
2023-01-26T11:06:36.803Z,100975.41
2023-01-26T11:09:18.340Z,100973.13
2023-01-26T11:12:04.545Z,100968.63
2023-01-26T11:14:35.681Z,100970.59
2023-01-26T11:17:17.669Z,100959.22
2023-01-26T11:20:11.657Z,100950.22
2023-01-26T11:22:52.448Z,100943.03
2023-01-26T11:25:28.951Z,100958.91
2023-01-26T11:28:15.902Z,100956.81
2023-01-26T11:30:59.780Z,100951.88
2023-01-26T11:33:43.849Z,100934.47
2023-01-26T11:36:30.158Z,100939.50
2023-01-26T11:39:13.748Z,100928.16
2023-01-26T11:41:54.481Z,100947.00
2023-01-26T11:44:44.204Z,100934.03
2023-01-26T11:47:29.289Z,100933.47
2023-01-26T11:50:23.575Z,100929.13
2023-01-26T11:53:02.532Z,100926.53
2023-01-26T11:55:55.148Z,100924.06
2023-01-26T11:58:39.048Z,100923.53
2023-01-26T12:01:13.093Z,100916.41
2023-01-26T12:03:47.504Z,100896.19
2023-01-26T12:06:29.577Z,100905.25
2023-01-26T12:09:02.960Z,100880.00
2023-01-26T12:11:39.448Z,100911.75
2023-01-26T12:14:17.662Z,100898.63
2023-01-26T12:17:15.656Z,100896.38
2023-01-26T12:19:56.096Z,100860.06
2023-01-26T12:22:34.224Z,100882.41
2023-01-26T12:25:19.689Z,100885.09
2023-01-26T12:28:01.550Z,100883.13
2023-01-26T12:30:42.053Z,100877.38
2023-01-26T12:33:15.650Z,100870.22
2023-01-26T12:36:09.701Z,100870.25
2023-01-26T12:39:12.571Z,100866.44
2023-01-26T12:42:02.746Z,100857.78
2023-01-26T12:44:38.507Z,100863.03
2023-01-26T12:47:15.546Z,100829.31
2023-01-26T12:49:53.387Z,100846.03
2023-01-26T12:52:28.377Z,100840.69
2023-01-26T12:55:04.382Z,100854.16
2023-01-26T12:57:41.227Z,100834.63
2023-01-26T13:00:30.067Z,100849.34
2023-01-26T13:03:03.723Z,100847.81
2023-01-26T13:05:39.519Z,100838.81
2023-01-26T13:09:01.250Z,100848.53
2023-01-26T13:11:50.867Z,100846.69
2023-01-26T13:14:42.080Z,100842.59
2023-01-26T13:17:53.025Z,100851.88
2023-01-26T13:20:47.105Z,100851.97
2023-01-26T13:23:53.743Z,100844.25
2023-01-26T13:26:44.218Z,100838.56
2023-01-26T13:29:35.634Z,100816.75
2023-01-26T13:32:58.252Z,100843.78
2023-01-26T13:35:35.731Z,100839.19
2023-01-26T13:38:16.199Z,100836.91
2023-01-26T13:40:55.156Z,100854.19
2023-01-26T13:43:33.883Z,100815.38
2023-01-26T13:46:14.206Z,100844.59
2023-01-26T13:48:46.744Z,100848.59
2023-01-26T13:51:19.997Z,100848.06
2023-01-26T13:54:06.316Z,100840.75
2023-01-26T13:56:37.540Z,100833.78
2023-01-26T13:59:12.926Z,100850.31
2023-01-26T14:01:49.831Z,100839.50
2023-01-26T14:04:24.801Z,100835.38
2023-01-26T14:06:57.745Z,100841.56
2023-01-26T14:09:30.467Z,100844.44
2023-01-26T14:12:03.987Z,100846.50
2023-01-26T14:14:37.047Z,100852.19
2023-01-26T14:17:29.413Z,100842.94
2023-01-26T14:20:00.338Z,100824.69
2023-01-26T14:22:52.510Z,100858.00
2023-01-26T14:25:22.586Z,100846.28
2023-01-26T14:27:54.212Z,100841.59
2023-01-26T14:30:29.943Z,100874.94
2023-01-26T14:33:09.561Z,100887.81
2023-01-26T14:35:38.129Z,100889.19
2023-01-26T14:38:16.703Z,100884.59
2023-01-26T14:40:53.110Z,100884.50
2023-01-26T14:43:23.435Z,100883.06
2023-01-26T14:45:59.506Z,100894.97
2023-01-26T14:48:36.300Z,100885.63
2023-01-26T14:51:10.143Z,100892.56
2023-01-26T14:53:40.791Z,100880.78
2023-01-26T15:04:25.999Z,100879.59
2023-01-26T15:06:54.433Z,100889.00
2023-01-26T15:09:28.925Z,100872.66
2023-01-26T15:12:19.312Z,100879.94
2023-01-26T15:14:51.251Z,100883.72
2023-01-26T15:17:39.397Z,100879.00
2023-01-26T15:20:42.221Z,100869.59
2023-01-26T15:23:27.773Z,100874.41
2023-01-26T15:25:59.513Z,100879.44
2023-01-26T15:28:36.478Z,100878.09
2023-01-26T15:31:05.940Z,100874.97
2023-01-26T15:33:45.340Z,100890.97
2023-01-26T15:36:37.489Z,100881.59
2023-01-26T15:39:13.942Z,100878.06
2023-01-26T15:41:43.056Z,100883.19
2023-01-26T15:44:19.829Z,100887.03
2023-01-26T15:46:47.731Z,100878.56
2023-01-26T15:49:23.674Z,100874.72
2023-01-26T15:51:55.697Z,100872.94
2023-01-26T15:54:26.466Z,100863.66
2023-01-26T15:56:57.421Z,100873.66
2023-01-26T15:59:26.380Z,100861.66
2023-01-26T16:01:57.584Z,100843.97
2023-01-26T16:04:28.938Z,100867.78
2023-01-26T16:06:59.126Z,100870.25
2023-01-26T16:09:33.859Z,100857.25
2023-01-26T16:12:02.703Z,100873.91
2023-01-26T16:14:32.869Z,100861.06
2023-01-26T16:17:01.531Z,100857.03
2023-01-26T16:19:35.555Z,100867.69
2023-01-26T16:22:04.003Z,100863.81
2023-01-26T16:24:34.260Z,100850.63
2023-01-26T16:27:05.243Z,100862.56
2023-01-26T16:29:36.852Z,100865.47
2023-01-26T16:32:31.412Z,100864.44
2023-01-26T16:35:00.222Z,100863.53
2023-01-26T16:37:29.478Z,100870.16
2023-01-26T16:40:00.891Z,100859.97
2023-01-26T16:42:32.436Z,100859.31
2023-01-26T16:45:01.493Z,100852.88
2023-01-26T16:47:37.315Z,100862.03
2023-01-26T16:50:06.211Z,100867.16
2023-01-26T16:52:39.507Z,100840.94
2023-01-26T16:55:17.666Z,100868.81
2023-01-26T16:57:50.338Z,100862.25
2023-01-26T17:00:21.933Z,100876.09
2023-01-26T17:02:54.510Z,100866.97
2023-01-26T17:05:26.677Z,100866.38
2023-01-26T17:08:00.617Z,100875.50
2023-01-26T17:10:35.812Z,100864.09
2023-01-26T17:13:07.101Z,100858.28
2023-01-26T17:15:35.328Z,100836.63
2023-01-26T17:18:06.652Z,100866.59
2023-01-26T17:20:35.352Z,100864.28
2023-01-26T17:23:05.775Z,100850.78
2023-01-26T17:25:36.132Z,100873.19
2023-01-26T17:28:11.416Z,100874.44
2023-01-26T17:30:41.163Z,100827.50
2023-01-26T17:33:11.654Z,100875.41
2023-01-26T17:35:40.839Z,100877.28
2023-01-26T17:38:09.544Z,100855.69
2023-01-26T17:40:41.353Z,100858.41
2023-01-26T17:43:13.638Z,100884.84
2023-01-26T17:45:45.025Z,100879.31
2023-01-26T17:48:16.260Z,100877.59
2023-01-26T17:50:51.885Z,100870.88
2023-01-26T17:53:23.149Z,100860.44
2023-01-26T17:55:55.366Z,100879.31
2023-01-26T17:58:25.024Z,100840.34
2023-01-26T18:00:53.281Z,100886.56
2023-01-26T18:03:27.240Z,100891.38
2023-01-26T18:05:58.260Z,100874.38
2023-01-26T18:08:27.349Z,100886.16
2023-01-26T18:11:03.970Z,100894.88
2023-01-26T18:13:39.755Z,100875.53
2023-01-26T18:16:09.108Z,100888.69
2023-01-26T18:18:38.241Z,100891.22
2023-01-26T18:21:17.871Z,100888.31
2023-01-26T18:23:48.498Z,100877.78
2023-01-26T18:26:22.274Z,100895.88
2023-01-26T18:28:57.943Z,100892.78
2023-01-26T18:31:30.872Z,100898.13
2023-01-26T18:34:02.444Z,100880.81
2023-01-26T18:36:31.263Z,100898.13
2023-01-26T18:39:02.158Z,100898.78
2023-01-26T18:41:33.035Z,100903.63
2023-01-26T18:44:03.990Z,100906.69
2023-01-26T18:46:33.695Z,100898.44
2023-01-26T18:49:04.860Z,100894.78
2023-01-26T18:51:37.891Z,100884.81
2023-01-26T18:54:12.226Z,100862.91
2023-01-26T18:56:49.358Z,100901.69
2023-01-26T18:59:18.248Z,100901.94
2023-01-26T19:01:49.084Z,100898.94
2023-01-26T19:04:21.051Z,100874.50
2023-01-26T19:06:50.358Z,100900.59
2023-01-26T19:09:20.972Z,100848.38
2023-01-26T19:11:53.308Z,100893.75
2023-01-26T19:14:22.591Z,100895.13
2023-01-26T19:16:57.512Z,100898.31
2023-01-26T19:19:27.144Z,100864.88
2023-01-26T19:21:56.312Z,100865.41
2023-01-26T19:24:27.482Z,100895.09
2023-01-26T19:26:57.807Z,100889.41
2023-01-26T19:29:34.539Z,100889.25
2023-01-26T19:32:03.625Z,100880.00
2023-01-26T19:34:37.817Z,100839.78
2023-01-26T19:37:06.901Z,100879.44
2023-01-26T19:39:39.411Z,100839.25
2023-01-26T19:42:10.046Z,100881.84
2023-01-26T19:44:39.292Z,100882.69
2023-01-26T19:47:09.271Z,100890.34
2023-01-26T19:49:38.042Z,100899.13
2023-01-26T19:52:11.686Z,100891.75
2023-01-26T19:54:43.573Z,100891.94
2023-01-26T19:57:14.559Z,100878.47
2023-01-26T19:59:55.889Z,100891.72
2023-01-26T20:02:28.914Z,100853.81
2023-01-26T20:04:58.407Z,100880.25
2023-01-26T20:07:26.622Z,100858.97
2023-01-26T20:09:58.734Z,100875.31
2023-01-26T20:12:28.528Z,100880.13
2023-01-26T20:15:01.609Z,100866.88
2023-01-26T20:17:30.329Z,100876.41
2023-01-26T20:19:59.911Z,100878.16
2023-01-26T20:22:33.643Z,100880.78
2023-01-26T20:25:02.786Z,100877.38
2023-01-26T20:27:36.337Z,100834.00
2023-01-26T20:30:06.710Z,100883.72
2023-01-26T20:32:43.024Z,100873.94
2023-01-26T20:35:16.376Z,100871.34
2023-01-26T20:37:45.156Z,100872.34
2023-01-26T20:40:14.919Z,100870.16
2023-01-26T20:42:45.949Z,100838.84
2023-01-26T20:45:15.338Z,100853.09
2023-01-26T20:47:45.528Z,100848.66
2023-01-26T20:50:22.173Z,100855.53
2023-01-26T20:52:55.303Z,100852.88
2023-01-26T20:55:24.330Z,100825.16
2023-01-26T20:57:53.684Z,100791.34
2023-01-26T21:00:24.223Z,100849.66
2023-01-26T21:02:54.341Z,100846.38
2023-01-26T21:05:25.129Z,100851.72
2023-01-26T21:07:54.142Z,100841.78
2023-01-26T21:10:24.973Z,100826.47
2023-01-26T21:12:54.394Z,100820.19
2023-01-26T21:15:22.300Z,100819.84
2023-01-26T21:17:53.356Z,100808.19
2023-01-26T21:20:22.251Z,100829.44
2023-01-26T21:22:50.560Z,100829.00
2023-01-26T21:25:18.691Z,100837.50
2023-01-26T21:27:55.313Z,100826.69
2023-01-26T21:30:30.181Z,100829.72
2023-01-26T21:33:23.542Z,100827.78
2023-01-26T21:35:58.268Z,100816.38
2023-01-26T21:38:34.921Z,100809.97
2023-01-26T21:41:05.709Z,100782.56
2023-01-26T21:43:37.495Z,100768.97
2023-01-26T21:46:08.466Z,100808.56
2023-01-26T21:48:39.249Z,100806.03
2023-01-26T21:51:30.413Z,100814.22
2023-01-26T21:54:04.621Z,100819.44
2023-01-26T21:56:34.743Z,100819.06
2023-01-26T21:59:08.388Z,100812.16
2023-01-26T22:01:55.173Z,100793.50
2023-01-26T22:04:26.467Z,100818.81
2023-01-26T22:06:56.101Z,100806.25
2023-01-26T22:09:27.061Z,100807.59
2023-01-26T22:11:55.986Z,100812.09
2023-01-26T22:14:29.125Z,100819.44
2023-01-26T22:17:00.517Z,100785.09
2023-01-26T22:19:30.713Z,100792.03
2023-01-26T22:21:59.076Z,100812.47
2023-01-26T22:24:28.283Z,100807.44
2023-01-26T22:26:59.697Z,100758.63
2023-01-26T22:29:29.512Z,100790.13
2023-01-26T22:32:05.545Z,100797.94
2023-01-26T22:34:37.861Z,100829.53
2023-01-26T22:37:06.662Z,100822.72
2023-01-26T22:39:39.861Z,100817.38
2023-01-26T22:42:10.964Z,100824.50
2023-01-26T22:44:39.787Z,100824.34
2023-01-26T22:47:10.862Z,100811.88
2023-01-26T22:49:39.141Z,100822.94
2023-01-26T22:52:21.665Z,100830.22
2023-01-26T22:54:52.936Z,100822.88
2023-01-26T22:57:22.605Z,100824.09
2023-01-26T22:59:52.716Z,100824.94
2023-01-26T23:02:22.552Z,100815.84
2023-01-26T23:04:50.822Z,100809.41
2023-01-26T23:07:20.426Z,100803.00
2023-01-26T23:09:50.978Z,100797.00
2023-01-26T23:12:19.948Z,100795.88
2023-01-26T23:14:48.615Z,100794.13
2023-01-26T23:17:18.109Z,100779.19
2023-01-26T23:19:49.702Z,100798.56
2023-01-26T23:22:21.662Z,100793.13
2023-01-26T23:25:21.472Z,100792.28
2023-01-26T23:27:50.698Z,100800.31
2023-01-26T23:30:18.983Z,100805.28
2023-01-26T23:32:49.478Z,100791.81
2023-01-26T23:35:20.840Z,100799.84
2023-01-26T23:37:51.539Z,100795.94
2023-01-26T23:40:20.700Z,100796.94
2023-01-26T23:43:14.299Z,100798.63
2023-01-26T23:45:45.535Z,100771.75
2023-01-26T23:48:17.575Z,100791.38
2023-01-26T23:50:55.349Z,100786.94
2023-01-26T23:53:25.536Z,100790.03
2023-01-26T23:55:55.354Z,100796.00
2023-01-26T23:58:28.170Z,100787.69
